sensor_id;sensor_type;location;lat;lon;timestamp;temperature;humidity
18103;DHT22;9178;51.120;6.192;2022-08-04T00:02:10;22.70;99.90
18103;DHT22;9178;51.120;6.192;2022-08-04T00:04:44;22.70;99.90
18103;DHT22;9178;51.120;6.192;2022-08-04T00:07:21;22.70;99.90
18103;DHT22;9178;51.120;6.192;2022-08-04T00:09:58;22.70;99.90
18103;DHT22;9178;51.120;6.192;2022-08-04T00:12:28;22.60;99.90
18103;DHT22;9178;51.120;6.192;2022-08-04T00:14:59;22.60;99.90
18103;DHT22;9178;51.120;6.192;2022-08-04T00:17:30;22.50;99.90
18103;DHT22;9178;51.120;6.192;2022-08-04T00:20:00;22.40;99.90
18103;DHT22;9178;51.120;6.192;2022-08-04T00:22:28;22.30;99.90
18103;DHT22;9178;51.120;6.192;2022-08-04T00:25:00;22.20;99.90
18103;DHT22;9178;51.120;6.192;2022-08-04T00:27:28;22.10;99.90
18103;DHT22;9178;51.120;6.192;2022-08-04T00:29:55;22.00;99.90
18103;DHT22;9178;51.120;6.192;2022-08-04T00:32:23;22.00;99.90
18103;DHT22;9178;51.120;6.192;2022-08-04T00:34:52;22.00;99.90
18103;DHT22;9178;51.120;6.192;2022-08-04T00:37:20;21.90;99.90
18103;DHT22;9178;51.120;6.192;2022-08-04T00:39:48;21.90;99.90
18103;DHT22;9178;51.120;6.192;2022-08-04T00:42:36;21.80;99.90
18103;DHT22;9178;51.120;6.192;2022-08-04T00:45:17;21.80;99.90
18103;DHT22;9178;51.120;6.192;2022-08-04T00:47:56;21.70;99.90
18103;DHT22;9178;51.120;6.192;2022-08-04T00:50:33;21.70;99.90
18103;DHT22;9178;51.120;6.192;2022-08-04T00:53:07;21.60;99.90
18103;DHT22;9178;51.120;6.192;2022-08-04T00:58:49;21.50;99.90
18103;DHT22;9178;51.120;6.192;2022-08-04T01:01:45;21.50;99.90
18103;DHT22;9178;51.120;6.192;2022-08-04T01:04:17;21.40;99.90
18103;DHT22;9178;51.120;6.192;2022-08-04T01:06:59;21.30;99.90
18103;DHT22;9178;51.120;6.192;2022-08-04T01:09:40;21.30;99.90
18103;DHT22;9178;51.120;6.192;2022-08-04T01:12:29;21.20;99.90
18103;DHT22;9178;51.120;6.192;2022-08-04T01:15:05;21.20;99.90
18103;DHT22;9178;51.120;6.192;2022-08-04T01:17:41;21.10;99.90
18103;DHT22;9178;51.120;6.192;2022-08-04T01:20:10;21.10;99.90
18103;DHT22;9178;51.120;6.192;2022-08-04T01:22:58;21.10;99.90
18103;DHT22;9178;51.120;6.192;2022-08-04T01:25:52;21.20;99.90
18103;DHT22;9178;51.120;6.192;2022-08-04T01:28:28;21.20;99.90
18103;DHT22;9178;51.120;6.192;2022-08-04T01:31:01;21.10;99.90
18103;DHT22;9178;51.120;6.192;2022-08-04T01:33:34;21.10;99.90
18103;DHT22;9178;51.120;6.192;2022-08-04T01:36:04;21.10;99.90
18103;DHT22;9178;51.120;6.192;2022-08-04T01:38:34;21.10;99.90
18103;DHT22;9178;51.120;6.192;2022-08-04T01:41:03;21.10;99.90
18103;DHT22;9178;51.120;6.192;2022-08-04T01:43:32;21.00;99.90
18103;DHT22;9178;51.120;6.192;2022-08-04T01:46:02;21.00;99.90
18103;DHT22;9178;51.120;6.192;2022-08-04T01:48:30;21.00;99.90
18103;DHT22;9178;51.120;6.192;2022-08-04T01:50:58;21.00;99.90
18103;DHT22;9178;51.120;6.192;2022-08-04T01:53:30;21.00;99.90
18103;DHT22;9178;51.120;6.192;2022-08-04T01:55:57;21.00;99.90
18103;DHT22;9178;51.120;6.192;2022-08-04T01:58:24;21.00;99.90
18103;DHT22;9178;51.120;6.192;2022-08-04T02:00:58;20.90;99.90
18103;DHT22;9178;51.120;6.192;2022-08-04T02:03:28;21.00;99.90
18103;DHT22;9178;51.120;6.192;2022-08-04T02:06:06;21.00;99.90
18103;DHT22;9178;51.120;6.192;2022-08-04T02:08:41;21.00;99.90
18103;DHT22;9178;51.120;6.192;2022-08-04T02:11:14;21.00;99.90
18103;DHT22;9178;51.120;6.192;2022-08-04T02:13:50;21.00;99.90
18103;DHT22;9178;51.120;6.192;2022-08-04T02:16:28;20.90;99.90
18103;DHT22;9178;51.120;6.192;2022-08-04T02:19:01;20.90;99.90
18103;DHT22;9178;51.120;6.192;2022-08-04T02:21:29;20.90;99.90
18103;DHT22;9178;51.120;6.192;2022-08-04T02:24:00;20.80;99.90
18103;DHT22;9178;51.120;6.192;2022-08-04T02:26:28;20.80;99.90
18103;DHT22;9178;51.120;6.192;2022-08-04T02:29:18;20.70;99.90
18103;DHT22;9178;51.120;6.192;2022-08-04T02:31:48;20.70;99.90
18103;DHT22;9178;51.120;6.192;2022-08-04T02:34:24;20.60;99.90
18103;DHT22;9178;51.120;6.192;2022-08-04T02:36:54;20.60;99.90
18103;DHT22;9178;51.120;6.192;2022-08-04T02:39:22;20.50;99.90
18103;DHT22;9178;51.120;6.192;2022-08-04T02:41:49;20.60;99.90
18103;DHT22;9178;51.120;6.192;2022-08-04T02:44:20;20.60;99.90
18103;DHT22;9178;51.120;6.192;2022-08-04T02:46:50;20.60;99.90
18103;DHT22;9178;51.120;6.192;2022-08-04T02:49:17;20.50;99.90
18103;DHT22;9178;51.120;6.192;2022-08-04T02:51:49;20.50;99.90
18103;DHT22;9178;51.120;6.192;2022-08-04T02:54:19;20.40;99.90
18103;DHT22;9178;51.120;6.192;2022-08-04T02:56:50;20.40;99.90
18103;DHT22;9178;51.120;6.192;2022-08-04T02:59:20;20.30;99.90
18103;DHT22;9178;51.120;6.192;2022-08-04T03:01:48;20.30;99.90
18103;DHT22;9178;51.120;6.192;2022-08-04T03:04:24;20.30;99.90
18103;DHT22;9178;51.120;6.192;2022-08-04T03:07:18;20.30;99.90
18103;DHT22;9178;51.120;6.192;2022-08-04T03:10:07;20.30;99.90
18103;DHT22;9178;51.120;6.192;2022-08-04T03:13:08;20.30;99.90
18103;DHT22;9178;51.120;6.192;2022-08-04T03:16:12;20.20;99.90
18103;DHT22;9178;51.120;6.192;2022-08-04T03:27:59;20.00;99.90
18103;DHT22;9178;51.120;6.192;2022-08-04T03:30:40;20.00;99.90
18103;DHT22;9178;51.120;6.192;2022-08-04T03:33:30;20.00;99.90
18103;DHT22;9178;51.120;6.192;2022-08-04T03:36:31;20.00;99.90
18103;DHT22;9178;51.120;6.192;2022-08-04T03:39:46;19.90;99.90
18103;DHT22;9178;51.120;6.192;2022-08-04T03:42:43;19.90;99.90
18103;DHT22;9178;51.120;6.192;2022-08-04T03:48:27;19.80;99.90
18103;DHT22;9178;51.120;6.192;2022-08-04T03:51:16;19.80;99.90
18103;DHT22;9178;51.120;6.192;2022-08-04T03:57:40;19.80;99.90
18103;DHT22;9178;51.120;6.192;2022-08-04T04:00:13;19.70;99.90
18103;DHT22;9178;51.120;6.192;2022-08-04T04:03:00;19.70;99.90
18103;DHT22;9178;51.120;6.192;2022-08-04T04:05:57;19.70;99.90
18103;DHT22;9178;51.120;6.192;2022-08-04T04:08:41;19.70;99.90
18103;DHT22;9178;51.120;6.192;2022-08-04T04:11:28;19.70;99.90
18103;DHT22;9178;51.120;6.192;2022-08-04T04:14:15;19.70;99.90
18103;DHT22;9178;51.120;6.192;2022-08-04T04:17:05;19.70;99.90
18103;DHT22;9178;51.120;6.192;2022-08-04T04:19:52;19.60;99.90
18103;DHT22;9178;51.120;6.192;2022-08-04T04:22:42;19.60;99.90
18103;DHT22;9178;51.120;6.192;2022-08-04T04:25:29;19.60;99.90
18103;DHT22;9178;51.120;6.192;2022-08-04T04:28:16;19.50;99.90
18103;DHT22;9178;51.120;6.192;2022-08-04T04:30:52;19.50;99.90
18103;DHT22;9178;51.120;6.192;2022-08-04T04:33:36;19.50;99.90
18103;DHT22;9178;51.120;6.192;2022-08-04T04:36:11;19.50;99.90
18103;DHT22;9178;51.120;6.192;2022-08-04T04:38:48;19.50;99.90
18103;DHT22;9178;51.120;6.192;2022-08-04T04:41:30;19.50;99.90
18103;DHT22;9178;51.120;6.192;2022-08-04T04:44:14;19.50;99.90
18103;DHT22;9178;51.120;6.192;2022-08-04T04:46:53;19.60;99.90
18103;DHT22;9178;51.120;6.192;2022-08-04T04:49:30;19.60;99.90
18103;DHT22;9178;51.120;6.192;2022-08-04T04:52:04;19.60;99.90
18103;DHT22;9178;51.120;6.192;2022-08-04T04:54:34;19.60;99.90
18103;DHT22;9178;51.120;6.192;2022-08-04T04:57:08;19.60;99.90
18103;DHT22;9178;51.120;6.192;2022-08-04T04:59:41;19.60;99.90
18103;DHT22;9178;51.120;6.192;2022-08-04T05:02:40;19.60;99.90
18103;DHT22;9178;51.120;6.192;2022-08-04T05:05:29;19.70;99.90
18103;DHT22;9178;51.120;6.192;2022-08-04T05:11:09;19.80;99.90
18103;DHT22;9178;51.120;6.192;2022-08-04T05:13:45;19.90;99.90
18103;DHT22;9178;51.120;6.192;2022-08-04T05:16:19;20.00;99.90
18103;DHT22;9178;51.120;6.192;2022-08-04T05:18:55;20.10;99.90
18103;DHT22;9178;51.120;6.192;2022-08-04T05:21:37;20.20;99.90
18103;DHT22;9178;51.120;6.192;2022-08-04T05:24:08;20.30;99.90
18103;DHT22;9178;51.120;6.192;2022-08-04T05:26:40;20.30;99.90
18103;DHT22;9178;51.120;6.192;2022-08-04T05:29:12;20.40;99.90
18103;DHT22;9178;51.120;6.192;2022-08-04T05:31:45;20.50;99.90
18103;DHT22;9178;51.120;6.192;2022-08-04T05:34:20;20.50;99.90
18103;DHT22;9178;51.120;6.192;2022-08-04T05:36:49;20.60;99.90
18103;DHT22;9178;51.120;6.192;2022-08-04T05:39:21;20.70;99.90
18103;DHT22;9178;51.120;6.192;2022-08-04T05:41:49;20.80;99.90
18103;DHT22;9178;51.120;6.192;2022-08-04T05:44:17;20.80;99.90
18103;DHT22;9178;51.120;6.192;2022-08-04T05:46:47;20.90;99.90
18103;DHT22;9178;51.120;6.192;2022-08-04T05:49:16;21.00;99.90
18103;DHT22;9178;51.120;6.192;2022-08-04T05:51:45;21.10;99.90
18103;DHT22;9178;51.120;6.192;2022-08-04T05:54:13;21.20;99.90
18103;DHT22;9178;51.120;6.192;2022-08-04T05:56:41;21.30;99.90
18103;DHT22;9178;51.120;6.192;2022-08-04T05:59:09;21.40;99.90
18103;DHT22;9178;51.120;6.192;2022-08-04T06:01:39;21.50;99.90
18103;DHT22;9178;51.120;6.192;2022-08-04T06:04:07;21.60;99.90
18103;DHT22;9178;51.120;6.192;2022-08-04T06:06:36;21.70;99.90
18103;DHT22;9178;51.120;6.192;2022-08-04T06:09:04;21.80;99.90
18103;DHT22;9178;51.120;6.192;2022-08-04T06:11:31;22.00;99.90
18103;DHT22;9178;51.120;6.192;2022-08-04T06:14:04;22.10;99.90
18103;DHT22;9178;51.120;6.192;2022-08-04T06:16:36;22.20;99.90
18103;DHT22;9178;51.120;6.192;2022-08-04T06:19:07;22.40;99.90
18103;DHT22;9178;51.120;6.192;2022-08-04T06:21:38;22.50;99.90
18103;DHT22;9178;51.120;6.192;2022-08-04T06:24:09;22.60;99.90
18103;DHT22;9178;51.120;6.192;2022-08-04T06:26:37;22.70;99.90
18103;DHT22;9178;51.120;6.192;2022-08-04T06:29:06;22.80;99.90
18103;DHT22;9178;51.120;6.192;2022-08-04T06:31:41;22.80;99.90
18103;DHT22;9178;51.120;6.192;2022-08-04T06:34:13;22.90;99.90
18103;DHT22;9178;51.120;6.192;2022-08-04T06:36:42;23.00;99.90
18103;DHT22;9178;51.120;6.192;2022-08-04T06:39:10;23.10;99.90
18103;DHT22;9178;51.120;6.192;2022-08-04T06:41:38;23.20;99.90
18103;DHT22;9178;51.120;6.192;2022-08-04T06:44:08;23.30;99.90
18103;DHT22;9178;51.120;6.192;2022-08-04T06:46:37;23.30;99.90
18103;DHT22;9178;51.120;6.192;2022-08-04T06:49:06;23.30;99.90
18103;DHT22;9178;51.120;6.192;2022-08-04T06:51:34;23.40;99.90
18103;DHT22;9178;51.120;6.192;2022-08-04T06:54:04;23.50;99.90
18103;DHT22;9178;51.120;6.192;2022-08-04T06:56:33;23.60;99.90
18103;DHT22;9178;51.120;6.192;2022-08-04T06:59:01;23.70;99.90
18103;DHT22;9178;51.120;6.192;2022-08-04T07:01:28;23.90;99.90
18103;DHT22;9178;51.120;6.192;2022-08-04T07:03:55;24.10;99.90
18103;DHT22;9178;51.120;6.192;2022-08-04T07:06:23;24.20;99.90
18103;DHT22;9178;51.120;6.192;2022-08-04T07:08:50;24.30;99.90
18103;DHT22;9178;51.120;6.192;2022-08-04T07:11:20;24.50;99.90
18103;DHT22;9178;51.120;6.192;2022-08-04T07:13:47;24.50;99.90
18103;DHT22;9178;51.120;6.192;2022-08-04T07:16:15;24.70;99.90
18103;DHT22;9178;51.120;6.192;2022-08-04T07:18:44;24.90;99.90
18103;DHT22;9178;51.120;6.192;2022-08-04T07:21:18;25.00;99.90
18103;DHT22;9178;51.120;6.192;2022-08-04T07:23:46;25.10;99.90
18103;DHT22;9178;51.120;6.192;2022-08-04T07:26:13;25.30;99.90
18103;DHT22;9178;51.120;6.192;2022-08-04T07:28:45;25.60;99.90
18103;DHT22;9178;51.120;6.192;2022-08-04T07:31:15;26.00;99.90
18103;DHT22;9178;51.120;6.192;2022-08-04T07:33:43;26.50;99.90
18103;DHT22;9178;51.120;6.192;2022-08-04T07:36:10;26.90;99.90
18103;DHT22;9178;51.120;6.192;2022-08-04T07:38:38;27.40;99.90
18103;DHT22;9178;51.120;6.192;2022-08-04T07:41:06;27.80;99.90
18103;DHT22;9178;51.120;6.192;2022-08-04T07:43:34;28.20;99.90
18103;DHT22;9178;51.120;6.192;2022-08-04T07:46:03;28.40;99.90
18103;DHT22;9178;51.120;6.192;2022-08-04T07:48:30;28.60;99.90
18103;DHT22;9178;51.120;6.192;2022-08-04T07:50:57;28.70;99.90
18103;DHT22;9178;51.120;6.192;2022-08-04T07:53:25;28.90;99.90
18103;DHT22;9178;51.120;6.192;2022-08-04T07:55:52;28.90;99.90
18103;DHT22;9178;51.120;6.192;2022-08-04T07:58:19;28.80;99.90
18103;DHT22;9178;51.120;6.192;2022-08-04T08:00:46;28.60;99.90
18103;DHT22;9178;51.120;6.192;2022-08-04T08:03:16;28.50;99.90
18103;DHT22;9178;51.120;6.192;2022-08-04T08:05:44;28.50;99.90
18103;DHT22;9178;51.120;6.192;2022-08-04T08:08:11;28.70;99.90
18103;DHT22;9178;51.120;6.192;2022-08-04T08:10:45;29.00;99.90
18103;DHT22;9178;51.120;6.192;2022-08-04T08:13:12;29.40;99.90
18103;DHT22;9178;51.120;6.192;2022-08-04T08:15:40;29.80;99.90
18103;DHT22;9178;51.120;6.192;2022-08-04T08:18:09;30.00;99.90
18103;DHT22;9178;51.120;6.192;2022-08-04T08:20:37;30.30;99.90
18103;DHT22;9178;51.120;6.192;2022-08-04T08:23:04;30.60;99.90
18103;DHT22;9178;51.120;6.192;2022-08-04T08:25:33;30.70;99.90
18103;DHT22;9178;51.120;6.192;2022-08-04T08:28:02;30.80;99.90
18103;DHT22;9178;51.120;6.192;2022-08-04T08:30:30;31.00;99.90
18103;DHT22;9178;51.120;6.192;2022-08-04T08:32:59;31.30;99.90
18103;DHT22;9178;51.120;6.192;2022-08-04T08:35:27;31.50;99.90
18103;DHT22;9178;51.120;6.192;2022-08-04T08:38:02;31.40;99.90
18103;DHT22;9178;51.120;6.192;2022-08-04T08:40:37;31.40;99.90
18103;DHT22;9178;51.120;6.192;2022-08-04T08:43:39;31.30;99.90
18103;DHT22;9178;51.120;6.192;2022-08-04T08:46:37;31.30;99.90
18103;DHT22;9178;51.120;6.192;2022-08-04T08:49:38;31.40;99.90
18103;DHT22;9178;51.120;6.192;2022-08-04T08:52:24;31.30;99.90
18103;DHT22;9178;51.120;6.192;2022-08-04T08:55:13;31.20;99.90
18103;DHT22;9178;51.120;6.192;2022-08-04T08:57:54;31.20;99.90
18103;DHT22;9178;51.120;6.192;2022-08-04T09:00:32;31.20;99.90
18103;DHT22;9178;51.120;6.192;2022-08-04T09:03:22;31.30;99.90
18103;DHT22;9178;51.120;6.192;2022-08-04T09:09:15;31.70;99.90
18103;DHT22;9178;51.120;6.192;2022-08-04T09:11:57;31.70;99.90
18103;DHT22;9178;51.120;6.192;2022-08-04T09:14:34;31.60;99.90
18103;DHT22;9178;51.120;6.192;2022-08-04T09:17:06;31.40;99.90
18103;DHT22;9178;51.120;6.192;2022-08-04T09:19:43;31.30;99.90
18103;DHT22;9178;51.120;6.192;2022-08-04T09:22:15;31.20;99.90
18103;DHT22;9178;51.120;6.192;2022-08-04T09:24:49;31.10;99.90
18103;DHT22;9178;51.120;6.192;2022-08-04T09:27:25;31.00;99.90
18103;DHT22;9178;51.120;6.192;2022-08-04T09:30:02;31.00;99.90
18103;DHT22;9178;51.120;6.192;2022-08-04T09:32:33;31.00;99.90
18103;DHT22;9178;51.120;6.192;2022-08-04T09:35:10;31.10;99.90
18103;DHT22;9178;51.120;6.192;2022-08-04T09:37:41;31.00;99.90
18103;DHT22;9178;51.120;6.192;2022-08-04T09:40:17;31.00;99.90
18103;DHT22;9178;51.120;6.192;2022-08-04T09:42:51;31.00;99.90
18103;DHT22;9178;51.120;6.192;2022-08-04T09:45:28;31.00;99.90
18103;DHT22;9178;51.120;6.192;2022-08-04T09:48:07;31.00;99.90
18103;DHT22;9178;51.120;6.192;2022-08-04T09:50:38;31.00;99.90
18103;DHT22;9178;51.120;6.192;2022-08-04T09:53:15;31.10;99.90
18103;DHT22;9178;51.120;6.192;2022-08-04T09:55:57;31.20;99.90
18103;DHT22;9178;51.120;6.192;2022-08-04T09:58:40;31.20;99.90
18103;DHT22;9178;51.120;6.192;2022-08-04T10:01:13;31.40;99.90
18103;DHT22;9178;51.120;6.192;2022-08-04T10:03:47;31.50;99.90
18103;DHT22;9178;51.120;6.192;2022-08-04T10:09:32;31.80;99.90
18103;DHT22;9178;51.120;6.192;2022-08-04T10:12:11;31.90;99.90
18103;DHT22;9178;51.120;6.192;2022-08-04T10:14:50;32.10;99.70
18103;DHT22;9178;51.120;6.192;2022-08-04T10:17:30;32.20;99.90
18103;DHT22;9178;51.120;6.192;2022-08-04T10:20:06;32.10;98.80
18103;DHT22;9178;51.120;6.192;2022-08-04T10:22:36;32.20;97.10
18103;DHT22;9178;51.120;6.192;2022-08-04T10:25:14;32.60;96.50
18103;DHT22;9178;51.120;6.192;2022-08-04T10:27:47;33.40;97.60
18103;DHT22;9178;51.120;6.192;2022-08-04T10:30:17;33.90;95.80
18103;DHT22;9178;51.120;6.192;2022-08-04T10:32:49;34.00;95.90
18103;DHT22;9178;51.120;6.192;2022-08-04T10:35:21;34.10;95.40
18103;DHT22;9178;51.120;6.192;2022-08-04T10:37:55;34.00;93.50
18103;DHT22;9178;51.120;6.192;2022-08-04T10:40:30;33.70;91.60
18103;DHT22;9178;51.120;6.192;2022-08-04T10:43:12;33.50;93.00
18103;DHT22;9178;51.120;6.192;2022-08-04T10:45:45;33.00;92.60
18103;DHT22;9178;51.120;6.192;2022-08-04T10:48:19;32.70;92.40
18103;DHT22;9178;51.120;6.192;2022-08-04T10:50:59;32.40;93.20
18103;DHT22;9178;51.120;6.192;2022-08-04T10:53:28;32.20;92.00
18103;DHT22;9178;51.120;6.192;2022-08-04T10:56:01;32.10;92.80
18103;DHT22;9178;51.120;6.192;2022-08-04T10:58:34;32.00;93.60
18103;DHT22;9178;51.120;6.192;2022-08-04T11:01:07;32.00;95.90
18103;DHT22;9178;51.120;6.192;2022-08-04T11:03:41;32.00;94.70
18103;DHT22;9178;51.120;6.192;2022-08-04T11:06:10;32.10;95.60
18103;DHT22;9178;51.120;6.192;2022-08-04T11:08:41;32.00;94.90
18103;DHT22;9178;51.120;6.192;2022-08-04T11:11:12;31.80;96.00
18103;DHT22;9178;51.120;6.192;2022-08-04T11:13:44;31.70;95.30
18103;DHT22;9178;51.120;6.192;2022-08-04T11:16:18;31.70;96.30
18103;DHT22;9178;51.120;6.192;2022-08-04T11:18:52;31.70;95.80
18103;DHT22;9178;51.120;6.192;2022-08-04T11:21:27;31.70;96.00
18103;DHT22;9178;51.120;6.192;2022-08-04T11:24:02;32.00;95.90
18103;DHT22;9178;51.120;6.192;2022-08-04T11:26:37;32.10;95.00
18103;DHT22;9178;51.120;6.192;2022-08-04T11:29:17;31.80;94.50
18103;DHT22;9178;51.120;6.192;2022-08-04T11:31:49;31.30;95.50
18103;DHT22;9178;51.120;6.192;2022-08-04T11:34:21;31.10;96.40
18103;DHT22;9178;51.120;6.192;2022-08-04T11:36:57;31.00;97.00
18103;DHT22;9178;51.120;6.192;2022-08-04T11:39:29;30.70;96.10
18103;DHT22;9178;51.120;6.192;2022-08-04T11:42:06;30.50;97.30
18103;DHT22;9178;51.120;6.192;2022-08-04T11:44:40;30.40;97.50
18103;DHT22;9178;51.120;6.192;2022-08-04T11:47:21;30.40;97.30
18103;DHT22;9178;51.120;6.192;2022-08-04T11:49:54;30.40;98.00
18103;DHT22;9178;51.120;6.192;2022-08-04T11:52:23;30.40;98.00
18103;DHT22;9178;51.120;6.192;2022-08-04T11:54:53;30.70;99.80
18103;DHT22;9178;51.120;6.192;2022-08-04T11:57:22;31.00;99.50
18103;DHT22;9178;51.120;6.192;2022-08-04T11:59:52;31.20;99.00
18103;DHT22;9178;51.120;6.192;2022-08-04T12:02:39;31.30;98.30
18103;DHT22;9178;51.120;6.192;2022-08-04T12:05:09;31.30;98.60
18103;DHT22;9178;51.120;6.192;2022-08-04T12:07:43;31.40;97.30
18103;DHT22;9178;51.120;6.192;2022-08-04T12:10:38;31.40;97.30
18103;DHT22;9178;51.120;6.192;2022-08-04T12:13:13;31.30;98.30
18103;DHT22;9178;51.120;6.192;2022-08-04T12:15:50;31.30;97.90
18103;DHT22;9178;51.120;6.192;2022-08-04T12:18:23;31.30;97.60
18103;DHT22;9178;51.120;6.192;2022-08-04T12:20:57;31.40;97.30
18103;DHT22;9178;51.120;6.192;2022-08-04T12:23:29;31.40;97.70
18103;DHT22;9178;51.120;6.192;2022-08-04T12:26:02;31.40;97.40
18103;DHT22;9178;51.120;6.192;2022-08-04T12:28:32;31.60;97.40
18103;DHT22;9178;51.120;6.192;2022-08-04T12:31:04;31.60;97.90
18103;DHT22;9178;51.120;6.192;2022-08-04T12:33:37;31.60;97.50
18103;DHT22;9178;51.120;6.192;2022-08-04T12:36:16;31.70;97.50
18103;DHT22;9178;51.120;6.192;2022-08-04T12:38:48;31.70;97.80
18103;DHT22;9178;51.120;6.192;2022-08-04T12:41:23;31.60;98.70
18103;DHT22;9178;51.120;6.192;2022-08-04T12:43:51;31.60;97.60
18103;DHT22;9178;51.120;6.192;2022-08-04T12:46:22;31.50;98.30
18103;DHT22;9178;51.120;6.192;2022-08-04T12:48:52;31.50;97.40
18103;DHT22;9178;51.120;6.192;2022-08-04T12:51:25;31.60;97.80
18103;DHT22;9178;51.120;6.192;2022-08-04T12:53:54;31.80;98.00
18103;DHT22;9178;51.120;6.192;2022-08-04T12:56:25;31.90;97.80
18103;DHT22;9178;51.120;6.192;2022-08-04T12:58:58;31.90;96.80
18103;DHT22;9178;51.120;6.192;2022-08-04T13:01:26;32.00;97.80
18103;DHT22;9178;51.120;6.192;2022-08-04T13:03:57;31.90;98.00
18103;DHT22;9178;51.120;6.192;2022-08-04T13:06:28;31.90;99.20
18103;DHT22;9178;51.120;6.192;2022-08-04T13:09:02;31.90;98.10
18103;DHT22;9178;51.120;6.192;2022-08-04T13:11:33;31.90;99.30
18103;DHT22;9178;51.120;6.192;2022-08-04T13:14:01;31.80;98.70
18103;DHT22;9178;51.120;6.192;2022-08-04T13:16:30;31.80;98.70
18103;DHT22;9178;51.120;6.192;2022-08-04T13:18:59;31.90;99.10
18103;DHT22;9178;51.120;6.192;2022-08-04T13:21:29;31.90;98.10
18103;DHT22;9178;51.120;6.192;2022-08-04T13:24:01;31.80;97.60
18103;DHT22;9178;51.120;6.192;2022-08-04T13:26:29;31.60;99.00
18103;DHT22;9178;51.120;6.192;2022-08-04T13:29:00;31.60;98.40
18103;DHT22;9178;51.120;6.192;2022-08-04T13:31:28;31.60;97.00
18103;DHT22;9178;51.120;6.192;2022-08-04T13:34:04;31.50;96.60
18103;DHT22;9178;51.120;6.192;2022-08-04T13:36:33;31.30;96.90
18103;DHT22;9178;51.120;6.192;2022-08-04T13:39:03;31.30;97.20
18103;DHT22;9178;51.120;6.192;2022-08-04T13:41:33;31.30;97.10
18103;DHT22;9178;51.120;6.192;2022-08-04T13:44:03;31.20;97.50
18103;DHT22;9178;51.120;6.192;2022-08-04T13:46:38;31.30;97.90
18103;DHT22;9178;51.120;6.192;2022-08-04T13:49:09;31.20;97.80
18103;DHT22;9178;51.120;6.192;2022-08-04T13:51:38;31.20;98.20
18103;DHT22;9178;51.120;6.192;2022-08-04T13:54:05;31.20;98.10
18103;DHT22;9178;51.120;6.192;2022-08-04T13:56:37;31.00;99.50
18103;DHT22;9178;51.120;6.192;2022-08-04T13:59:09;31.00;99.10
18103;DHT22;9178;51.120;6.192;2022-08-04T14:01:40;30.80;98.70
18103;DHT22;9178;51.120;6.192;2022-08-04T14:04:15;30.60;98.80
18103;DHT22;9178;51.120;6.192;2022-08-04T14:06:49;30.50;99.80
18103;DHT22;9178;51.120;6.192;2022-08-04T14:09:17;30.50;98.90
18103;DHT22;9178;51.120;6.192;2022-08-04T14:11:46;30.40;99.90
18103;DHT22;9178;51.120;6.192;2022-08-04T14:14:18;30.40;99.90
18103;DHT22;9178;51.120;6.192;2022-08-04T14:16:57;30.30;99.30
18103;DHT22;9178;51.120;6.192;2022-08-04T14:19:25;30.10;98.90
18103;DHT22;9178;51.120;6.192;2022-08-04T14:21:52;30.00;99.90
18103;DHT22;9178;51.120;6.192;2022-08-04T14:24:23;29.90;99.50
18103;DHT22;9178;51.120;6.192;2022-08-04T14:26:51;29.80;99.90
18103;DHT22;9178;51.120;6.192;2022-08-04T14:29:18;29.80;99.90
18103;DHT22;9178;51.120;6.192;2022-08-04T14:31:47;29.70;99.90
18103;DHT22;9178;51.120;6.192;2022-08-04T14:34:25;29.50;99.90
18103;DHT22;9178;51.120;6.192;2022-08-04T14:36:53;29.40;99.90
18103;DHT22;9178;51.120;6.192;2022-08-04T14:39:36;29.40;99.90
18103;DHT22;9178;51.120;6.192;2022-08-04T14:42:04;29.40;99.90
18103;DHT22;9178;51.120;6.192;2022-08-04T14:44:31;29.40;99.90
18103;DHT22;9178;51.120;6.192;2022-08-04T14:47:17;29.40;99.90
18103;DHT22;9178;51.120;6.192;2022-08-04T14:49:54;29.40;99.90
18103;DHT22;9178;51.120;6.192;2022-08-04T14:52:24;29.40;99.90
18103;DHT22;9178;51.120;6.192;2022-08-04T14:54:51;29.40;99.90
18103;DHT22;9178;51.120;6.192;2022-08-04T14:57:18;29.30;99.90
18103;DHT22;9178;51.120;6.192;2022-08-04T14:59:47;29.30;99.90
18103;DHT22;9178;51.120;6.192;2022-08-04T15:02:15;29.30;99.90
18103;DHT22;9178;51.120;6.192;2022-08-04T15:04:44;29.30;99.90
18103;DHT22;9178;51.120;6.192;2022-08-04T15:07:13;29.30;99.90
18103;DHT22;9178;51.120;6.192;2022-08-04T15:09:40;29.20;99.90
18103;DHT22;9178;51.120;6.192;2022-08-04T15:12:09;29.20;99.90
18103;DHT22;9178;51.120;6.192;2022-08-04T15:14:36;29.00;99.90
18103;DHT22;9178;51.120;6.192;2022-08-04T15:17:03;28.90;99.90
18103;DHT22;9178;51.120;6.192;2022-08-04T15:19:30;28.90;99.90
18103;DHT22;9178;51.120;6.192;2022-08-04T15:21:58;28.80;99.90
18103;DHT22;9178;51.120;6.192;2022-08-04T15:24:26;28.80;99.90
18103;DHT22;9178;51.120;6.192;2022-08-04T15:26:55;28.70;99.90
18103;DHT22;9178;51.120;6.192;2022-08-04T15:29:27;28.70;99.90
18103;DHT22;9178;51.120;6.192;2022-08-04T15:31:56;28.70;99.90
18103;DHT22;9178;51.120;6.192;2022-08-04T15:34:43;28.90;99.90
18103;DHT22;9178;51.120;6.192;2022-08-04T15:37:10;28.90;99.90
18103;DHT22;9178;51.120;6.192;2022-08-04T15:39:50;29.00;99.90
18103;DHT22;9178;51.120;6.192;2022-08-04T15:42:22;28.90;99.90
18103;DHT22;9178;51.120;6.192;2022-08-04T15:45:19;29.00;99.90
18103;DHT22;9178;51.120;6.192;2022-08-04T15:48:23;29.00;99.90
18103;DHT22;9178;51.120;6.192;2022-08-04T15:51:09;29.10;99.90
18103;DHT22;9178;51.120;6.192;2022-08-04T15:56:47;29.10;99.90
18103;DHT22;9178;51.120;6.192;2022-08-04T15:59:15;29.10;99.90
18103;DHT22;9178;51.120;6.192;2022-08-04T16:01:42;29.10;99.90
18103;DHT22;9178;51.120;6.192;2022-08-04T16:04:23;29.10;99.90
18103;DHT22;9178;51.120;6.192;2022-08-04T16:06:51;29.20;99.90
18103;DHT22;9178;51.120;6.192;2022-08-04T16:09:29;29.40;99.90
18103;DHT22;9178;51.120;6.192;2022-08-04T16:11:57;29.70;99.90
18103;DHT22;9178;51.120;6.192;2022-08-04T16:14:32;30.00;99.90
18103;DHT22;9178;51.120;6.192;2022-08-04T16:17:14;30.30;99.90
18103;DHT22;9178;51.120;6.192;2022-08-04T16:20:07;30.30;99.90
18103;DHT22;9178;51.120;6.192;2022-08-04T16:22:37;30.40;99.90
18103;DHT22;9178;51.120;6.192;2022-08-04T16:25:06;30.60;99.90
18103;DHT22;9178;51.120;6.192;2022-08-04T16:27:40;30.80;99.90
18103;DHT22;9178;51.120;6.192;2022-08-04T16:30:09;30.80;99.90
18103;DHT22;9178;51.120;6.192;2022-08-04T16:32:42;30.70;99.90
18103;DHT22;9178;51.120;6.192;2022-08-04T16:35:21;30.50;99.90
18103;DHT22;9178;51.120;6.192;2022-08-04T16:37:52;30.40;99.90
18103;DHT22;9178;51.120;6.192;2022-08-04T16:40:33;30.30;99.90
18103;DHT22;9178;51.120;6.192;2022-08-04T16:43:04;30.30;99.90
18103;DHT22;9178;51.120;6.192;2022-08-04T16:45:42;30.30;99.90
18103;DHT22;9178;51.120;6.192;2022-08-04T16:48:10;30.30;99.90
18103;DHT22;9178;51.120;6.192;2022-08-04T16:50:46;30.30;99.90
18103;DHT22;9178;51.120;6.192;2022-08-04T16:53:14;30.20;99.90
18103;DHT22;9178;51.120;6.192;2022-08-04T16:55:45;30.10;99.90
18103;DHT22;9178;51.120;6.192;2022-08-04T16:58:15;30.10;99.90
18103;DHT22;9178;51.120;6.192;2022-08-04T17:00:42;30.00;99.90